createdAt,value
2022-11-10T00:02:05.258Z,1.63
2022-11-10T00:04:53.489Z,1.73
2022-11-10T00:07:42.234Z,1.20
2022-11-10T00:10:31.123Z,1.20
2022-11-10T00:13:19.720Z,1.63
2022-11-10T00:16:28.797Z,1.33
2022-11-10T00:19:17.079Z,1.30
2022-11-10T00:22:05.327Z,1.38
2022-11-10T00:24:53.637Z,1.20
2022-11-10T00:27:41.935Z,1.58
2022-11-10T00:30:30.209Z,2.00
2022-11-10T00:33:20.153Z,1.40
2022-11-10T00:36:09.073Z,1.67
2022-11-10T00:38:57.377Z,1.70
2022-11-10T00:41:45.670Z,2.00
2022-11-10T00:44:33.920Z,1.45
2022-11-10T00:47:22.205Z,1.90
2022-11-10T00:50:11.886Z,1.17
2022-11-10T00:53:00.143Z,1.50
2022-11-10T00:55:48.730Z,1.48
2022-11-10T00:58:37.449Z,1.80
2022-11-10T01:01:26.879Z,2.00
2022-11-10T01:04:15.130Z,2.13
2022-11-10T01:07:04.748Z,1.83
2022-11-10T01:09:53.033Z,1.80
2022-11-10T01:12:41.591Z,1.90
2022-11-10T01:15:29.902Z,1.88
2022-11-10T01:18:18.220Z,1.80
2022-11-10T01:21:07.718Z,2.10
2022-11-10T01:23:58.006Z,2.30
2022-11-10T01:26:46.242Z,2.20
2022-11-10T01:29:34.499Z,2.05
2022-11-10T01:32:22.737Z,1.85
2022-11-10T01:35:11.636Z,2.17
2022-11-10T01:37:59.875Z,2.35
2022-11-10T01:40:49.761Z,1.98
2022-11-10T01:43:38.795Z,2.08
2022-11-10T01:46:27.522Z,2.20
2022-11-10T01:49:18.391Z,2.75
2022-11-10T01:52:10.956Z,1.95
2022-11-10T01:54:59.552Z,1.92
2022-11-10T01:57:49.449Z,2.58
2022-11-10T02:00:37.745Z,2.70
2022-11-10T02:03:33.528Z,2.40
2022-11-10T02:06:25.640Z,2.50
2022-11-10T02:09:14.185Z,2.35
2022-11-10T02:12:02.509Z,2.05
2022-11-10T02:14:52.122Z,2.58
2022-11-10T02:17:40.993Z,2.10
2022-11-10T02:20:29.257Z,2.35
2022-11-10T02:23:47.257Z,2.20
2022-11-10T02:26:37.367Z,2.00
2022-11-10T02:29:27.293Z,2.63
2022-11-10T02:32:15.592Z,1.88
2022-11-10T02:35:04.027Z,2.90
2022-11-10T02:37:52.300Z,2.40
2022-11-10T02:40:42.111Z,2.25
2022-11-10T02:43:30.939Z,2.65
2022-11-10T02:46:19.227Z,2.13
2022-11-10T02:49:08.052Z,2.25
2022-11-10T02:51:56.525Z,2.53
2022-11-10T02:54:44.774Z,2.45
2022-11-10T02:57:34.409Z,2.50
2022-11-10T03:00:22.781Z,2.40
2022-11-10T03:03:11.084Z,2.22
2022-11-10T03:05:59.307Z,1.90
2022-11-10T03:08:47.612Z,2.28
2022-11-10T03:11:35.872Z,2.08
2022-11-10T03:14:25.539Z,2.40
2022-11-10T03:17:13.785Z,1.88
2022-11-10T03:20:02.046Z,1.70
2022-11-10T03:22:50.409Z,2.63
2022-11-10T03:25:39.037Z,2.50
2022-11-10T03:28:27.331Z,1.80
2022-11-10T03:31:16.963Z,2.30
2022-11-10T03:34:05.238Z,1.95
2022-11-10T03:36:53.462Z,1.80
2022-11-10T03:39:41.715Z,1.80
2022-11-10T03:42:29.974Z,1.90
2022-11-10T03:45:18.382Z,2.50
2022-11-10T03:48:08.231Z,2.10
2022-11-10T03:50:56.463Z,2.35
2022-11-10T03:53:44.686Z,2.58
2022-11-10T03:56:32.908Z,1.70
2022-11-10T03:59:21.186Z,1.90
2022-11-10T04:02:09.543Z,2.10
2022-11-10T04:05:17.019Z,2.30
2022-11-10T04:08:30.268Z,1.73
2022-11-10T04:11:39.025Z,1.92
2022-11-10T04:14:44.620Z,1.65
2022-11-10T04:17:32.911Z,1.80
2022-11-10T04:20:22.530Z,1.73
2022-11-10T04:23:28.973Z,1.80
2022-11-10T04:26:33.602Z,1.60
2022-11-10T04:29:21.915Z,1.30
2022-11-10T04:32:10.240Z,1.92
2022-11-10T04:34:58.565Z,2.30
2022-11-10T04:37:49.048Z,2.00
2022-11-10T04:40:37.281Z,2.20
2022-11-10T04:43:25.766Z,1.60
2022-11-10T04:46:22.624Z,2.20
2022-11-10T04:49:11.779Z,3.05
2022-11-10T04:52:00.158Z,8.13
2022-11-10T04:54:49.839Z,2.83
2022-11-10T04:57:38.120Z,2.72
2022-11-10T05:00:26.674Z,2.45
2022-11-10T05:03:15.033Z,2.50
2022-11-10T05:06:03.325Z,2.42
2022-11-10T05:08:51.988Z,2.05
2022-11-10T05:11:41.662Z,2.45
2022-11-10T05:14:29.970Z,1.60
2022-11-10T05:17:18.321Z,2.50
2022-11-10T05:20:07.861Z,2.78
2022-11-10T05:23:13.854Z,1.70
2022-11-10T05:26:02.129Z,1.52
2022-11-10T05:28:51.743Z,2.03
2022-11-10T05:31:39.999Z,2.00
2022-11-10T05:34:28.260Z,2.03
2022-11-10T05:37:16.519Z,1.85
2022-11-10T05:40:05.120Z,1.60
2022-11-10T05:42:54.575Z,1.77
2022-11-10T05:45:44.307Z,2.30
2022-11-10T05:48:32.563Z,2.67
2022-11-10T05:51:20.853Z,2.05
2022-11-10T05:54:09.704Z,1.95
2022-11-10T05:56:58.049Z,2.20
2022-11-10T05:59:46.353Z,2.42
2022-11-10T06:02:35.952Z,2.90
2022-11-10T06:05:29.685Z,2.78
2022-11-10T06:08:19.307Z,2.28
2022-11-10T06:11:07.515Z,2.55
2022-11-10T06:13:55.844Z,2.72
2022-11-10T06:16:44.116Z,2.10
2022-11-10T06:19:33.808Z,2.40
2022-11-10T06:22:22.304Z,2.83
2022-11-10T06:25:11.652Z,2.20
2022-11-10T06:28:00.381Z,2.72
2022-11-10T06:30:48.701Z,3.10
2022-11-10T06:33:37.058Z,2.42
2022-11-10T06:36:26.728Z,2.55
2022-11-10T06:39:15.136Z,2.40
2022-11-10T06:42:03.373Z,2.78
2022-11-10T06:44:51.626Z,2.83
2022-11-10T06:47:39.883Z,3.45
2022-11-10T06:50:28.128Z,4.05
2022-11-10T06:53:21.728Z,3.30
2022-11-10T06:56:13.287Z,3.53
2022-11-10T06:59:01.662Z,4.07
2022-11-10T07:01:50.364Z,2.65
2022-11-10T07:04:38.665Z,2.28
2022-11-10T07:07:27.032Z,2.50
2022-11-10T07:10:16.907Z,2.92
2022-11-10T07:13:06.156Z,2.85
2022-11-10T07:15:54.491Z,2.67
2022-11-10T07:18:42.775Z,2.22
2022-11-10T07:21:31.102Z,2.65
2022-11-10T07:24:19.412Z,2.92
2022-11-10T07:27:09.051Z,2.05
2022-11-10T07:29:57.328Z,2.60
2022-11-10T07:32:45.910Z,2.25
2022-11-10T07:35:35.329Z,2.97
2022-11-10T07:38:23.829Z,2.55
2022-11-10T07:41:12.069Z,2.83
2022-11-10T07:44:01.754Z,3.33
2022-11-10T07:46:50.133Z,3.47
2022-11-10T07:49:38.460Z,3.50
2022-11-10T07:52:26.717Z,3.10
2022-11-10T07:55:15.005Z,3.33
2022-11-10T07:58:03.281Z,4.00
2022-11-10T08:00:53.197Z,2.70
2022-11-10T08:03:41.446Z,3.10
2022-11-10T08:06:34.916Z,4.35
2022-11-10T08:09:24.330Z,2.90
2022-11-10T08:12:12.644Z,3.38
2022-11-10T08:15:00.887Z,3.38
2022-11-10T08:17:50.596Z,3.33
2022-11-10T08:20:38.916Z,3.30
2022-11-10T08:23:28.620Z,3.00
2022-11-10T08:26:17.834Z,3.00
2022-11-10T08:29:06.110Z,2.95
2022-11-10T08:31:54.391Z,2.85
2022-11-10T08:34:43.970Z,2.80
2022-11-10T08:37:32.215Z,2.58
2022-11-10T08:40:21.437Z,2.00
2022-11-10T08:43:10.475Z,2.25
2022-11-10T08:45:58.958Z,2.92
2022-11-10T08:48:47.212Z,2.58
2022-11-10T08:51:39.160Z,2.53
2022-11-10T08:54:27.832Z,2.42
2022-11-10T08:57:16.104Z,2.50
2022-11-10T09:00:05.377Z,3.42
2022-11-10T09:02:53.661Z,3.15
2022-11-10T09:05:42.770Z,2.70
2022-11-10T09:08:33.912Z,2.33
2022-11-10T09:11:22.186Z,2.65
2022-11-10T09:14:11.137Z,3.15
2022-11-10T09:16:59.448Z,2.60
2022-11-10T09:19:47.787Z,1.70
2022-11-10T09:22:36.520Z,2.50
2022-11-10T09:25:26.174Z,2.67
2022-11-10T09:28:15.375Z,2.53
2022-11-10T09:31:03.643Z,2.50
2022-11-10T09:33:51.929Z,2.28
2022-11-10T09:36:40.657Z,2.25
2022-11-10T09:39:29.944Z,2.25
2022-11-10T09:42:38.605Z,1.95
2022-11-10T09:45:32.941Z,2.00
2022-11-10T09:48:28.736Z,2.00
2022-11-10T09:51:20.678Z,2.17
2022-11-10T09:54:19.141Z,2.28
2022-11-10T09:57:11.508Z,2.72
2022-11-10T10:00:01.326Z,2.40
2022-11-10T10:02:55.007Z,2.30
2022-11-10T10:05:53.456Z,2.15
2022-11-10T10:09:00.102Z,2.20
2022-11-10T10:11:57.672Z,2.03
2022-11-10T10:14:57.549Z,3.35
2022-11-10T10:17:57.781Z,2.63
2022-11-10T10:20:56.537Z,2.43
2022-11-10T10:27:04.521Z,1.92
2022-11-10T10:29:53.747Z,2.10
2022-11-10T10:32:42.592Z,1.55
2022-11-10T10:35:41.922Z,1.63
2022-11-10T10:38:38.006Z,1.90
2022-11-10T10:41:29.357Z,2.03
2022-11-10T10:44:22.086Z,1.73
2022-11-10T10:47:15.571Z,2.08
2022-11-10T10:50:26.137Z,1.92
2022-11-10T10:53:18.285Z,1.27
2022-11-10T10:56:18.342Z,1.48
2022-11-10T10:59:17.336Z,2.10
2022-11-10T11:02:22.012Z,1.42
2022-11-10T11:05:13.602Z,1.60
2022-11-10T11:08:04.187Z,1.58
2022-11-10T11:10:53.815Z,2.75
2022-11-10T11:13:42.141Z,1.65
2022-11-10T11:16:42.457Z,2.05
2022-11-10T11:19:34.779Z,1.48
2022-11-10T11:22:44.035Z,1.83
2022-11-10T11:25:36.151Z,1.75
2022-11-10T11:28:35.273Z,2.03
2022-11-10T11:31:38.754Z,1.52
2022-11-10T11:34:36.904Z,1.50
2022-11-10T11:37:33.876Z,1.85
2022-11-10T11:40:28.989Z,1.80
2022-11-10T11:43:40.757Z,1.50
2022-11-10T11:46:36.596Z,1.40
2022-11-10T11:49:42.804Z,1.63
2022-11-10T11:52:38.060Z,1.48
2022-11-10T11:55:38.627Z,1.88
2022-11-10T11:58:38.783Z,1.80
2022-11-10T12:01:42.103Z,1.70
2022-11-10T12:04:45.737Z,1.98
2022-11-10T12:07:45.621Z,1.42
2022-11-10T12:10:44.782Z,1.77
2022-11-10T12:13:50.447Z,1.85
2022-11-10T12:16:40.361Z,2.25
2022-11-10T12:19:39.413Z,1.73
2022-11-10T12:22:37.057Z,1.40
2022-11-10T12:25:31.848Z,1.55
2022-11-10T12:28:24.909Z,1.80
2022-11-10T12:31:19.290Z,1.90
2022-11-10T12:34:15.635Z,1.45
2022-11-10T12:37:07.793Z,1.50
2022-11-10T12:40:00.214Z,1.17
2022-11-10T12:42:55.705Z,1.77
2022-11-10T12:45:47.009Z,1.50
2022-11-10T12:48:48.236Z,1.65
2022-11-10T12:51:47.072Z,1.40
2022-11-10T12:54:36.829Z,1.40
2022-11-10T12:57:28.167Z,1.30
2022-11-10T13:00:30.045Z,2.00
2022-11-10T13:03:28.436Z,2.03
2022-11-10T13:06:28.450Z,1.45
2022-11-10T13:09:27.984Z,1.98
2022-11-10T13:12:19.349Z,1.58
2022-11-10T13:15:40.888Z,1.80
2022-11-10T13:19:00.017Z,2.65
2022-11-10T13:22:11.366Z,1.40
2022-11-10T13:25:37.178Z,1.23
2022-11-10T13:28:58.101Z,2.00
2022-11-10T13:31:54.789Z,1.55
2022-11-10T13:34:44.125Z,1.45
2022-11-10T13:37:54.116Z,1.67
2022-11-10T13:40:44.367Z,1.23
2022-11-10T13:43:35.355Z,1.42
2022-11-10T13:49:38.555Z,1.70
2022-11-10T13:52:50.609Z,1.90
2022-11-10T13:55:59.328Z,1.33
2022-11-10T13:58:47.870Z,2.33
2022-11-10T14:01:36.339Z,1.55
2022-11-10T14:04:42.692Z,1.65
2022-11-10T14:07:38.786Z,1.33
2022-11-10T14:10:36.351Z,1.40
2022-11-10T14:13:34.857Z,1.45
2022-11-10T14:16:25.591Z,1.50
2022-11-10T14:19:32.410Z,2.15
2022-11-10T14:22:26.864Z,1.40
2022-11-10T14:25:21.738Z,2.17
2022-11-10T14:28:27.113Z,1.33
2022-11-10T14:31:20.840Z,1.30
2022-11-10T14:34:15.469Z,1.42
2022-11-10T14:37:05.067Z,1.35
2022-11-10T14:39:55.921Z,1.48
2022-11-10T14:42:47.139Z,1.90
2022-11-10T14:45:38.576Z,1.60
2022-11-10T14:48:28.988Z,1.80
2022-11-10T14:51:19.754Z,1.42
2022-11-10T14:54:13.711Z,1.95
2022-11-10T14:57:01.998Z,2.53
2022-11-10T14:59:50.359Z,2.35
2022-11-10T15:02:40.909Z,1.88
2022-11-10T15:05:32.122Z,1.75
2022-11-10T15:08:20.881Z,2.45
2022-11-10T15:11:36.764Z,1.73
2022-11-10T15:14:40.580Z,1.77
2022-11-10T15:17:50.972Z,1.45
2022-11-10T15:20:41.502Z,1.80
2022-11-10T15:23:34.047Z,2.00
2022-11-10T15:26:23.902Z,2.35
2022-11-10T15:29:21.100Z,2.08
2022-11-10T15:32:16.157Z,2.35
2022-11-10T15:35:27.528Z,1.75
2022-11-10T15:38:30.785Z,2.05
2022-11-10T15:41:27.315Z,2.35
2022-11-10T15:44:18.130Z,2.38
2022-11-10T15:47:07.183Z,3.15
2022-11-10T15:49:55.499Z,2.58
2022-11-10T15:52:45.185Z,2.45
2022-11-10T15:55:34.470Z,3.20
2022-11-10T15:58:24.456Z,4.00
2022-11-10T16:01:18.998Z,4.37
2022-11-10T16:04:10.146Z,5.60
2022-11-10T16:06:58.490Z,4.57
2022-11-10T16:09:48.358Z,4.57
2022-11-10T16:12:37.034Z,3.15
2022-11-10T16:15:25.365Z,2.97
2022-11-10T16:18:19.981Z,3.47
2022-11-10T16:21:12.465Z,4.10
2022-11-10T16:24:00.875Z,3.40
2022-11-10T16:26:53.629Z,2.72
2022-11-10T16:29:43.852Z,4.75
2022-11-10T16:32:32.091Z,9.13
2022-11-10T16:35:20.382Z,10.60
2022-11-10T16:38:15.288Z,7.40
2022-11-10T16:41:05.287Z,4.63
2022-11-10T16:43:54.908Z,4.07
2022-11-10T16:46:44.611Z,5.10
2022-11-10T16:49:35.859Z,4.03
2022-11-10T16:52:24.473Z,4.53
2022-11-10T16:55:14.578Z,6.78
2022-11-10T16:58:02.929Z,3.97
2022-11-10T17:00:54.457Z,3.88
2022-11-10T17:03:46.083Z,2.50
2022-11-10T17:06:34.854Z,2.60
2022-11-10T17:09:26.697Z,2.35
2022-11-10T17:12:15.688Z,2.20
2022-11-10T17:15:04.081Z,3.13
2022-11-10T17:17:58.852Z,2.33
2022-11-10T17:20:52.404Z,3.00
2022-11-10T17:23:41.422Z,2.40
2022-11-10T17:26:30.932Z,2.50
2022-11-10T17:29:21.080Z,2.08
2022-11-10T17:32:09.380Z,2.40
2022-11-10T17:34:59.082Z,2.58
2022-11-10T17:37:50.691Z,3.00
2022-11-10T17:40:39.158Z,2.67
2022-11-10T17:43:27.486Z,2.35
2022-11-10T17:46:16.229Z,3.20
2022-11-10T17:49:04.507Z,2.90
2022-11-10T17:51:54.169Z,3.75
2022-11-10T17:54:42.598Z,2.88
2022-11-10T17:57:30.903Z,2.95
2022-11-10T18:00:20.334Z,3.60
2022-11-10T18:03:08.742Z,2.28
2022-11-10T18:05:57.193Z,2.65
2022-11-10T18:08:47.154Z,2.58
2022-11-10T18:11:35.466Z,3.10
2022-11-10T18:14:23.894Z,2.65
2022-11-10T18:17:12.118Z,3.22
2022-11-10T18:20:00.830Z,2.83
2022-11-10T18:22:49.192Z,3.60
2022-11-10T18:25:39.371Z,4.35
2022-11-10T18:28:27.630Z,2.87
2022-11-10T18:31:17.641Z,3.00
2022-11-10T18:34:06.524Z,3.28
2022-11-10T18:36:55.246Z,2.83
2022-11-10T18:39:43.645Z,3.20
2022-11-10T18:42:34.385Z,2.55
2022-11-10T18:45:22.636Z,4.38
2022-11-10T18:48:10.878Z,2.42
2022-11-10T18:50:59.124Z,2.92
2022-11-10T18:53:47.373Z,3.00
2022-11-10T18:56:35.814Z,3.25
2022-11-10T18:59:25.565Z,4.57
2022-11-10T19:02:14.594Z,4.28
2022-11-10T19:05:03.294Z,3.10
2022-11-10T19:07:51.529Z,3.00
2022-11-10T19:10:42.864Z,4.35
2022-11-10T19:13:31.164Z,3.70
2022-11-10T19:16:21.503Z,3.30
2022-11-10T19:19:11.634Z,4.20
2022-11-10T19:22:00.749Z,3.07
2022-11-10T19:25:06.947Z,3.80
2022-11-10T19:27:57.029Z,3.67
2022-11-10T19:30:45.599Z,3.35
2022-11-10T19:33:37.480Z,3.13
2022-11-10T19:36:27.466Z,5.45
2022-11-10T19:39:15.917Z,4.13
2022-11-10T19:42:04.223Z,12.93
2022-11-10T19:44:52.513Z,6.68
2022-11-10T19:47:40.858Z,3.88
2022-11-10T19:50:30.495Z,3.97
2022-11-10T19:53:18.744Z,3.42
2022-11-10T19:56:09.691Z,2.63
2022-11-10T19:58:58.138Z,3.95
2022-11-10T20:01:46.425Z,3.88
2022-11-10T20:04:54.720Z,3.13
2022-11-10T20:08:04.196Z,3.72
2022-11-10T20:10:56.143Z,3.22
2022-11-10T20:13:44.626Z,2.63
2022-11-10T20:16:32.995Z,3.00
2022-11-10T20:19:21.275Z,2.85
2022-11-10T20:22:12.659Z,2.45
2022-11-10T20:25:02.317Z,2.83
2022-11-10T20:27:50.640Z,3.47
2022-11-10T20:30:44.194Z,2.80
2022-11-10T20:33:33.469Z,2.50
2022-11-10T20:36:24.152Z,2.85
2022-11-10T20:39:12.465Z,3.65
2022-11-10T20:42:02.073Z,3.70
2022-11-10T20:44:50.509Z,3.20
2022-11-10T20:47:39.028Z,3.47
2022-11-10T20:50:27.587Z,2.45
2022-11-10T20:53:15.892Z,2.55
2022-11-10T20:56:05.836Z,3.15
2022-11-10T20:58:55.449Z,2.55
2022-11-10T21:01:43.729Z,3.60
2022-11-10T21:04:32.008Z,2.92
2022-11-10T21:07:20.291Z,2.72
2022-11-10T21:10:09.301Z,2.78
2022-11-10T21:12:57.596Z,3.15
2022-11-10T21:15:51.158Z,3.03
2022-11-10T21:18:39.569Z,3.30
2022-11-10T21:21:41.789Z,3.10
2022-11-10T21:24:30.130Z,3.38
2022-11-10T21:27:18.358Z,3.45
2022-11-10T21:30:11.483Z,3.13
2022-11-10T21:33:06.671Z,2.90
2022-11-10T21:35:54.915Z,3.05
2022-11-10T21:38:47.196Z,2.83
2022-11-10T21:41:35.449Z,3.60
2022-11-10T21:44:24.715Z,3.10
2022-11-10T21:47:13.008Z,2.22
2022-11-10T21:50:02.621Z,3.92
2022-11-10T21:52:50.974Z,2.50
2022-11-10T21:55:39.241Z,2.65
2022-11-10T21:58:28.039Z,2.25
2022-11-10T22:01:19.319Z,2.58
2022-11-10T22:04:07.655Z,2.60
2022-11-10T22:07:14.975Z,2.13
2022-11-10T22:10:20.850Z,2.58
2022-11-10T22:13:45.067Z,3.05
2022-11-10T22:16:53.581Z,2.63
2022-11-10T22:19:42.721Z,2.80
2022-11-10T22:22:32.341Z,3.25
2022-11-10T22:25:20.680Z,3.40
2022-11-10T22:28:08.948Z,3.55
2022-11-10T22:30:57.276Z,3.65
2022-11-10T22:33:45.535Z,7.45
2022-11-10T22:36:33.971Z,5.40
2022-11-10T22:39:43.613Z,6.43
2022-11-10T22:42:49.306Z,6.70
2022-11-10T22:45:37.996Z,6.63
2022-11-10T22:48:29.816Z,6.70
2022-11-10T22:51:18.134Z,5.03
2022-11-10T22:54:09.843Z,4.22
2022-11-10T22:56:59.531Z,3.85
2022-11-10T22:59:47.809Z,4.68
2022-11-10T23:02:36.095Z,3.60
2022-11-10T23:05:24.330Z,3.58
2022-11-10T23:08:12.629Z,4.45
2022-11-10T23:11:01.933Z,4.80
2022-11-10T23:13:52.119Z,4.90
2022-11-10T23:16:40.381Z,4.77
2022-11-10T23:19:28.656Z,4.82
2022-11-10T23:22:16.899Z,4.30
2022-11-10T23:25:05.726Z,4.50
2022-11-10T23:27:53.982Z,4.13
2022-11-10T23:30:43.598Z,4.20
2022-11-10T23:33:33.227Z,3.92
2022-11-10T23:36:23.025Z,3.72
2022-11-10T23:39:12.902Z,4.25
2022-11-10T23:42:01.169Z,3.65
2022-11-10T23:44:49.526Z,3.88
2022-11-10T23:47:39.419Z,4.07
2022-11-10T23:50:27.698Z,4.60
2022-11-10T23:53:16.730Z,4.82
2022-11-10T23:56:07.012Z,3.88
2022-11-10T23:58:55.276Z,5.15
